Date,TemperatureHighF,TemperatureAvgF,TemperatureLowF,DewpointHighF,DewpointAvgF,DewpointLowF,HumidityHigh,HumidityAvg,HumidityLow,PressureMaxIn,PressureMinIn,WindSpeedMaxMPH,WindSpeedAvgMPH,GustSpeedMaxMPH,PrecipitationSumIn
2013-1-1,22.0,8.4,-8.0,10.0,2.5,-13.0,87,77,54,0.00,40.00,9,2,9,0.00
2013-1-2,22.0,-3.0,-16.0,5.0,-9.6,-22.0,81,73,46,0.00,40.00,3,0,4,0.00
2013-1-3,24.0,7.4,-5.0,11.0,0.8,-10.0,84,74,55,0.00,40.00,2,0,4,0.00
2013-1-4,31.0,18.1,-4.0,21.0,10.0,-9.0,85,71,47,0.00,40.00,17,7,22,0.00
2013-1-5,36.0,20.2,5.0,19.0,12.5,1.0,86,72,38,0.00,40.00,9,2,11,0.00
2013-1-6,30.0,23.8,9.0,21.0,14.8,5.0,84,69,52,0.00,40.00,19,8,26,0.00
2013-1-7,31.0,26.9,21.0,24.0,18.3,11.0,80,69,58,0.00,40.00,23,13,35,0.00
2013-1-8,35.0,28.8,24.0,26.0,20.7,15.0,84,71,60,0.00,40.00,29,16,37,0.00
2013-1-9,42.0,36.4,31.0,25.0,21.3,19.0,67,55,41,0.00,40.00,22,9,31,0.00
2013-1-10,38.0,20.1,7.0,26.0,16.2,-2.0,94,86,43,0.00,40.00,14,6,22,0.00
2013-1-11,5.0,0.9,-9.0,-1.0,-4.1,-13.0,82,79,75,0.00,40.00,8,3,12,0.00
2013-1-12,11.0,-6.0,-27.0,3.0,-11.4,-33.0,81,76,68,0.00,40.00,4,1,6,0.00
2013-1-13,9.0,-1.2,-9.0,-2.0,-6.9,-14.0,81,76,54,0.00,40.00,5,1,6,0.00
2013-1-14,14.0,2.6,-17.0,10.0,-2.5,-23.0,86,79,70,0.00,40.00,12,4,15,0.00
2013-1-15,25.0,18.4,13.0,20.0,13.6,9.0,87,82,72,0.00,40.00,13,7,16,0.00
2013-1-16,34.0,21.2,3.0,18.0,12.5,-1.0,87,70,45,0.00,40.00,11,4,14,0.00
2013-1-17,37.0,14.7,-7.0,27.0,4.0,-12.0,93,65,38,0.00,40.00,17,4,22,0.00
2013-1-18,38.0,31.6,25.0,16.0,10.1,4.0,50,40,29,0.00,40.00,22,10,29,0.00
2013-1-19,35.0,28.2,17.0,14.0,8.2,4.0,56,42,33,0.00,40.00,16,8,21,0.00
2013-1-20,40.0,29.7,22.0,20.0,11.1,6.0,52,45,37,0.00,40.00,15,6,21,0.00
2013-1-21,41.0,30.2,20.0,16.0,9.0,3.0,65,41,27,0.00,40.00,12,5,18,0.00
2013-1-22,47.0,27.8,3.0,10.0,0.9,-9.0,68,36,12,0.00,40.00,9,3,12,0.00
2013-1-23,46.0,28.7,12.0,24.0,12.2,6.0,78,54,19,0.00,40.00,30,6,34,0.00
2013-1-24,37.0,31.8,17.0,28.0,22.3,14.0,88,68,54,0.00,40.00,25,11,33,0.00
2013-1-25,37.0,32.8,27.0,31.0,25.0,19.0,94,73,66,0.00,40.00,11,5,16,0.00
2013-1-26,39.0,29.5,23.0,30.0,25.1,21.0,95,84,51,0.00,40.00,12,4,23,0.00
2013-1-27,24.0,18.3,7.0,22.0,13.2,4.0,93,81,64,0.00,40.00,8,3,12,0.00
2013-1-28,20.0,16.3,8.0,14.0,9.8,5.0,88,75,59,0.00,40.00,17,5,20,0.00
2013-1-29,21.0,17.3,14.0,15.0,13.5,10.0,90,85,75,0.00,40.00,14,5,16,0.00
2013-1-30,28.0,25.4,21.0,25.0,22.3,16.0,95,88,78,0.00,40.00,19,10,24,0.00
2013-1-31,32.0,29.9,28.0,26.0,24.0,22.0,82,79,76,0.00,40.00,20,14,24,0.00
2013-2-1,30.0,27.7,23.0,25.0,20.7,17.0,89,75,62,0.00,40.00,19,12,27,0.00
2013-2-2,41.0,22.5,5.0,20.0,14.3,2.0,89,72,41,0.00,40.00,9,3,11,0.00
2013-2-3,35.0,21.5,0.0,18.0,10.4,-4.0,88,64,45,0.00,40.00,19,9,25,0.00
2013-2-4,32.0,29.5,27.0,24.0,20.2,15.0,78,68,54,0.00,40.00,20,12,27,0.00
2013-2-5,37.0,31.0,22.0,25.0,22.0,17.0,93,70,47,0.00,40.00,16,7,24,0.00
2013-2-6,30.0,22.2,8.0,24.0,15.0,2.0,91,74,55,0.00,40.00,15,7,21,0.00
2013-2-7,35.0,14.6,4.0,13.0,7.1,0.0,86,74,30,0.00,40.00,3,0,6,0.00
2013-2-8,28.0,18.8,2.0,18.0,11.5,-2.0,87,73,60,0.00,40.00,9,3,12,0.00
2013-2-9,25.0,20.3,18.0,17.0,14.1,11.0,91,77,59,0.00,40.00,10,4,12,0.00
2013-2-10,23.0,13.1,-8.0,17.0,8.2,-13.0,91,81,58,0.00,40.00,9,3,14,0.00
2013-2-11,25.0,12.6,-5.0,15.0,7.0,-10.0,89,78,65,0.00,40.00,9,3,12,0.00
2013-2-12,28.0,25.2,18.0,21.0,18.9,13.0,81,77,72,0.00,40.00,19,11,26,0.00
2013-2-13,32.0,28.7,25.0,23.0,20.1,14.0,80,70,57,0.00,40.00,24,11,30,0.00
2013-2-14,26.0,23.9,21.0,20.0,16.9,14.0,90,74,64,0.00,40.00,19,13,25,0.00
2013-2-15,35.0,28.0,21.0,23.0,20.2,14.0,82,72,61,0.00,40.00,12,7,17,0.00
2013-2-16,42.0,25.2,6.0,25.0,17.4,3.0,92,74,50,0.00,40.00,20,5,30,0.00
2013-2-17,26.0,21.9,17.0,23.0,16.2,10.0,90,79,71,0.00,40.00,15,8,19,0.00
2013-2-18,30.0,19.0,13.0,13.0,9.3,5.0,84,67,39,0.00,40.00,6,2,7,0.00
2013-2-19,32.0,23.8,13.0,18.0,11.5,7.0,86,60,34,0.00,40.00,14,3,16,0.00
2013-2-20,25.0,20.1,14.0,20.0,15.0,10.0,91,81,65,0.00,40.00,8,3,10,0.00
2013-2-21,22.0,12.9,-8.0,14.0,5.5,-13.0,88,72,52,0.00,40.00,13,6,18,0.00
2013-2-22,29.0,22.9,14.0,20.0,14.4,7.0,82,70,56,0.00,40.00,22,12,29,0.00
2013-2-23,28.0,20.0,17.0,23.0,12.8,7.0,92,74,56,0.00,40.00,17,9,21,0.00
2013-2-24,24.0,18.6,14.0,12.0,9.8,8.0,79,68,58,0.00,40.00,17,8,22,0.00
2013-2-25,28.0,17.8,5.0,21.0,11.5,1.0,88,77,56,0.00,40.00,18,8,27,0.00
2013-2-26,23.0,18.9,13.0,13.0,11.1,6.0,82,71,60,0.00,40.00,17,8,19,0.00
2013-2-27,30.0,17.5,0.0,15.0,6.4,-4.0,85,63,42,0.00,40.00,21,7,26,0.00
2013-2-28,32.0,28.1,17.0,27.0,20.6,6.0,93,74,56,0.00,40.00,14,7,19,0.00
2013-3-1,39.0,35.6,33.0,30.0,27.9,24.0,82,74,64,0.00,40.00,20,10,24,0.00
2013-3-2,44.0,37.1,29.0,28.0,23.6,21.0,71,59,39,0.00,40.00,16,4,19,0.00
2013-3-3,36.0,25.2,17.0,31.0,18.9,8.0,97,78,55,0.00,40.00,22,12,32,0.00
2013-3-4,27.0,15.9,1.0,12.0,7.5,-4.0,90,71,40,0.00,40.00,11,4,14,0.00
2013-3-5,39.0,18.3,-10.0,18.0,5.5,-15.0,82,60,32,0.00,40.00,3,1,5,0.00
2013-3-6,40.0,30.7,22.0,33.0,20.9,13.0,95,68,47,0.00,40.00,15,5,31,0.00
2013-3-7,34.0,25.3,14.0,21.0,13.5,7.0,92,63,34,0.00,40.00,15,4,23,0.00
2013-3-8,38.0,16.6,-3.0,15.0,4.7,-8.0,84,64,29,0.00,40.00,8,2,10,0.00
2013-3-9,35.0,20.3,0.0,16.0,10.5,-4.0,85,67,44,0.00,40.00,9,3,12,0.00
2013-3-10,37.0,26.1,1.0,25.0,12.3,-3.0,87,60,28,0.00,40.00,19,8,26,0.00
2013-3-11,32.0,27.2,21.0,24.0,15.1,6.0,85,62,34,0.00,40.00,19,12,29,0.00
2013-3-12,41.0,30.8,16.0,29.0,20.9,7.0,80,66,55,0.00,40.00,17,7,21,0.00
2013-3-13,45.0,39.0,35.0,28.0,25.1,21.0,70,57,40,0.00,40.00,15,6,19,0.00
2013-3-14,50.0,40.0,31.0,27.0,23.9,22.0,71,53,34,0.00,40.00,11,5,18,0.00
2013-3-15,40.0,37.3,30.0,28.0,23.8,20.0,75,58,44,0.00,40.00,21,9,26,0.00
2013-3-16,37.0,31.9,26.0,25.0,22.1,19.0,85,67,47,0.00,40.00,13,6,20,0.00
2013-3-17,30.0,20.3,13.0,26.0,14.2,4.0,95,77,62,0.00,40.00,19,12,29,0.00
2013-3-18,24.0,18.4,12.0,18.0,10.4,4.0,91,72,53,0.00,40.00,24,13,31,0.00
2013-3-19,43.0,23.2,3.0,14.0,4.4,-9.0,91,53,12,0.00,40.00,8,2,11,0.00
2013-3-20,42.0,32.6,19.0,30.0,22.3,7.0,95,67,49,0.00,40.00,21,8,28,0.00
2013-3-21,26.0,19.3,10.0,24.0,10.5,3.0,92,69,52,0.00,40.00,26,14,31,0.00
2013-3-22,23.0,13.6,2.0,14.0,7.0,-2.0,89,76,49,0.00,40.00,12,4,17,0.00
2013-3-23,22.0,11.8,2.0,11.0,5.7,-1.0,89,77,50,0.00,40.00,9,2,11,0.00
2013-3-24,35.0,11.5,-13.0,7.0,-3.4,-19.0,85,57,22,0.00,40.00,6,2,8,0.00
2013-3-25,39.0,17.0,-13.0,17.0,1.0,-19.0,80,55,22,0.00,40.00,8,2,11,0.00
2013-3-26,43.0,31.2,21.0,21.0,17.5,15.0,82,59,33,0.00,40.00,9,2,11,0.00
2013-3-27,45.0,31.3,12.0,30.0,20.6,9.0,89,68,35,0.00,40.00,12,2,19,0.00
2013-3-28,44.0,33.1,20.0,34.0,26.7,19.0,94,79,45,0.00,40.00,15,3,21,0.00
2013-3-29,41.0,34.8,29.0,35.0,30.9,28.0,96,86,68,0.00,40.00,9,3,13,0.00
2013-3-30,48.0,35.9,27.0,31.0,24.8,20.0,94,68,34,0.00,40.00,7,2,11,0.00
2013-3-31,52.0,37.2,19.0,29.0,21.1,14.0,91,58,25,0.00,40.00,10,2,14,0.00
2013-4-1,54.0,38.9,20.0,28.0,24.5,18.0,91,59,30,0.00,40.00,10,3,14,0.00
2013-4-2,50.0,37.6,23.0,29.0,25.6,20.0,91,65,40,0.00,40.00,11,3,14,0.00
2013-4-3,46.0,37.7,30.0,31.0,27.4,25.0,89,68,44,0.00,40.00,13,5,18,0.00
2013-4-4,54.0,39.2,28.0,36.0,29.9,25.0,93,72,35,0.00,40.00,20,4,24,0.00
2013-4-5,43.0,37.1,33.0,37.0,30.1,25.0,95,77,51,0.00,40.00,25,10,29,0.00
2013-4-6,38.0,34.4,31.0,35.0,28.9,26.0,94,80,64,0.00,40.00,17,7,23,0.00
2013-4-7,38.0,31.3,27.0,32.0,27.4,23.0,94,85,66,0.00,40.00,19,5,26,0.00
2013-4-8,28.0,22.0,16.0,25.0,14.4,9.0,92,72,58,0.00,40.00,9,4,16,0.00
2013-4-9,38.0,19.1,3.0,15.0,8.0,-1.0,84,65,33,0.00,40.00,7,3,10,0.00
2013-4-10,43.0,37.4,29.0,35.0,29.8,20.0,91,74,62,0.00,40.00,16,11,23,0.00
2013-4-11,36.0,32.6,28.0,31.0,22.7,19.0,89,67,51,0.00,40.00,18,12,26,0.00
2013-4-12,45.0,33.6,22.0,20.0,17.1,11.0,80,53,26,0.00,40.00,19,5,28,0.00
2013-4-13,37.0,28.2,21.0,30.0,19.2,9.0,92,69,45,0.00,40.00,29,17,35,0.00
2013-4-14,30.0,23.3,16.0,21.0,16.4,11.0,93,76,53,0.00,40.00,13,8,17,0.00
2013-4-15,27.0,18.0,11.0,11.0,7.9,5.0,81,65,46,0.00,40.00,9,5,19,0.00
2013-4-16,24.0,18.5,10.0,10.0,5.9,1.0,79,58,38,0.00,40.00,12,5,21,0.00
2013-4-17,32.0,16.8,2.0,8.0,2.7,-3.0,81,57,25,0.00,40.00,12,5,19,0.00
2013-4-18,37.0,24.9,11.0,20.0,13.4,4.0,78,62,46,0.00,40.00,15,8,19,0.00
2013-4-19,39.0,34.4,29.0,32.0,27.1,20.0,86,75,60,0.00,40.00,19,10,24,0.00
2013-4-20,39.0,34.9,32.0,31.0,26.5,22.0,92,72,53,0.00,40.00,24,14,29,0.00
2013-4-21,38.0,31.0,16.0,27.0,22.4,13.0,92,72,45,0.00,40.00,22,10,27,0.00
2013-4-22,31.0,19.7,11.0,17.0,10.8,4.0,89,70,34,0.00,40.00,8,4,12,0.00
2013-4-23,34.0,23.4,9.0,19.0,11.7,5.0,85,63,40,0.00,40.00,16,5,20,0.00
2013-4-24,43.0,32.3,19.0,23.0,17.2,13.0,85,56,32,0.00,40.00,19,7,24,0.00
2013-4-25,47.0,39.1,32.0,24.0,20.7,18.0,62,48,34,0.00,40.00,22,10,26,0.00
2013-4-26,51.0,39.7,28.0,29.0,24.7,21.0,81,57,32,0.00,40.00,22,8,26,0.00
2013-4-27,52.0,45.0,38.0,30.0,25.4,18.0,70,48,26,0.00,40.00,24,14,35,0.00
2013-4-28,44.0,40.3,37.0,31.0,26.9,22.0,73,59,42,0.00,40.00,24,13,40,0.00
2013-4-29,39.0,35.6,30.0,31.0,26.2,19.0,90,69,44,0.00,40.00,27,17,41,0.00
2013-4-30,32.0,24.7,19.0,21.0,15.1,7.0,89,68,35,0.00,40.00,16,5,20,0.00
2013-5-1,38.0,27.2,16.0,18.0,13.9,5.0,90,61,28,0.00,40.00,11,4,17,0.00
2013-5-2,50.0,34.8,18.0,20.0,13.3,1.0,84,48,15,0.00,40.00,13,4,17,0.00
2013-5-3,40.0,37.1,33.0,35.0,28.8,17.0,95,73,46,0.00,40.00,10,4,13,0.00
2013-5-4,45.0,38.6,33.0,34.0,30.8,27.0,96,76,49,0.00,40.00,17,4,23,0.00
2013-5-5,60.0,46.5,34.0,32.0,29.2,24.0,83,55,27,0.00,40.00,13,6,22,0.00
2013-5-6,67.0,48.4,28.0,31.0,24.6,11.0,88,47,14,0.00,40.00,12,3,16,0.00
2013-5-7,63.0,48.2,29.0,32.0,28.9,22.0,89,52,24,0.00,40.00,15,5,21,0.00
2013-5-8,64.0,46.9,32.0,37.0,32.2,28.0,88,60,26,0.00,40.00,8,-14,15,0.00
2013-5-9,63.0,46.9,34.0,45.0,34.0,29.0,87,65,29,0.00,40.00,12,3,23,0.00
2013-5-10,65.0,49.3,37.0,41.0,32.8,-99.9,90,61,25,0.00,40.00,9,2,19,0.00
2013-5-11,64.0,51.0,35.0,39.0,33.4,-99.9,83,55,28,0.00,40.00,13,4,24,0.00
2013-5-12,68.0,55.8,43.0,43.0,38.1,34.0,82,54,30,0.00,40.00,21,7,29,0.00
2013-5-13,71.0,54.4,41.0,45.0,38.8,26.0,86,61,19,0.00,40.00,30,9,42,0.00
2013-5-14,59.0,48.5,41.0,40.0,28.7,21.0,76,49,23,0.00,40.00,16,10,22,0.00
2013-5-15,59.0,44.8,31.0,40.0,30.2,26.0,89,60,31,0.00,40.00,12,4,24,0.00
2013-5-16,52.0,40.5,33.0,40.0,19.6,-99.9,95,77,54,0.00,40.00,13,4,15,0.00
2013-5-17,44.0,40.6,36.0,41.0,33.4,-99.9,95,88,74,0.00,40.00,6,3,9,0.00
2013-5-18,46.0,41.5,38.0,41.0,37.9,36.0,95,87,70,0.00,40.00,12,5,16,0.00
2013-5-19,44.0,40.1,37.0,39.0,36.3,34.0,92,86,78,0.00,40.00,11,6,14,0.00
2013-5-20,56.0,46.4,41.0,39.0,36.6,34.0,86,70,43,0.00,40.00,9,4,16,0.00
2013-5-21,61.0,50.2,39.0,40.0,36.6,30.0,87,62,31,0.00,40.00,14,7,34,0.00
2013-5-22,55.0,45.5,33.0,44.0,36.0,32.0,96,71,51,0.00,40.00,21,9,29,0.00
2013-5-23,33.0,30.7,28.0,32.0,29.7,27.0,97,96,96,0.00,40.00,7,3,11,0.00
2013-5-24,49.0,44.4,38.0,34.0,30.0,22.0,80,58,38,0.00,40.00,15,-59,28,0.00
2013-5-25,52.0,41.8,31.0,41.0,33.4,29.0,93,73,43,0.00,40.00,12,3,15,0.00
2013-5-26,55.0,41.3,29.0,41.0,35.1,28.0,96,81,42,0.00,40.00,22,4,33,0.00
2013-5-27,53.0,44.3,36.0,40.0,36.6,32.0,97,76,46,0.00,40.00,16,5,18,0.00
2013-5-28,47.0,41.0,34.0,42.0,37.8,33.0,96,89,76,0.00,40.00,12,4,16,0.00
2013-5-29,56.0,45.2,37.0,41.0,36.8,32.0,95,75,40,0.00,40.00,19,5,28,0.00
2013-5-30,46.0,41.5,38.0,36.0,32.5,27.0,86,71,49,0.00,40.00,21,13,29,0.00
2013-5-31,48.0,41.7,34.0,33.0,29.2,26.0,81,62,44,0.00,40.00,12,9,18,0.00
2013-6-1,60.0,45.0,28.0,37.0,28.9,21.0,89,58,23,0.00,40.00,9,3,11,0.00
2013-6-2,49.0,42.3,37.0,41.0,36.4,33.0,93,81,61,0.00,40.00,12,4,16,0.00
2013-6-3,50.0,42.1,38.0,40.0,36.9,35.0,92,82,60,0.00,40.00,21,10,27,0.00
2013-6-4,57.0,44.0,35.0,39.0,34.2,27.0,97,72,32,0.00,40.00,8,3,11,0.00
2013-6-5,66.0,50.5,32.0,41.0,35.3,30.0,92,60,31,0.00,40.00,9,3,16,0.00
2013-6-6,71.0,57.1,43.0,48.0,37.7,33.0,73,51,28,0.00,40.00,9,3,13,0.00
2013-6-7,64.0,56.3,46.0,46.0,41.4,38.0,76,59,39,0.00,40.00,22,10,30,0.00
2013-6-8,65.0,57.3,50.0,43.0,35.3,28.0,65,45,30,0.00,40.00,20,12,26,0.00
2013-6-9,70.0,57.4,41.0,43.0,34.6,26.0,82,46,21,0.00,40.00,19,9,27,0.00
2013-6-10,72.0,56.7,38.0,41.0,33.5,30.0,73,45,22,0.00,40.00,10,4,13,0.00
2013-6-11,66.0,55.9,44.0,47.0,42.4,32.0,88,62,35,0.00,40.00,16,4,29,0.00
2013-6-12,65.0,54.8,43.0,50.0,45.3,40.0,95,72,50,0.00,40.00,12,7,19,0.00
2013-6-13,50.0,42.2,37.0,46.0,38.9,35.0,96,88,61,0.00,40.00,15,4,30,0.00
2013-6-14,49.0,42.3,33.0,37.0,33.1,29.0,96,72,48,0.00,40.00,18,10,26,0.00
2013-6-15,66.0,49.3,31.0,33.0,27.7,20.0,89,50,18,0.00,40.00,12,5,19,0.00
2013-6-16,71.0,56.0,38.0,39.0,31.1,26.0,71,43,19,0.00,40.00,9,4,19,0.00
2013-6-17,76.0,61.5,47.0,47.0,39.2,29.0,84,47,19,0.00,40.00,12,4,21,0.00
2013-6-18,77.0,63.6,45.0,47.0,40.3,30.0,81,46,19,0.00,40.00,12,6,24,0.00
2013-6-19,54.0,45.7,41.0,47.0,41.2,36.0,92,85,71,0.00,40.00,21,5,27,0.00
2013-6-20,46.0,42.3,40.0,38.0,35.2,33.0,83,76,65,0.00,40.00,20,14,34,0.00
2013-6-22,54.0,47.8,37.0,40.0,37.4,35.0,96,68,48,0.00,40.00,11,5,17,0.00
2013-6-23,63.0,51.0,34.0,43.0,35.5,30.0,90,60,31,0.00,40.00,12,4,17,0.00
2013-6-24,65.0,54.3,47.0,50.0,43.4,37.0,92,68,38,0.00,40.00,18,4,22,0.00
2013-6-25,59.0,52.4,48.0,47.0,42.9,39.0,88,71,50,0.00,40.00,16,8,20,0.00
2013-6-26,59.0,54.0,48.0,50.0,45.7,42.0,86,74,61,0.00,40.00,16,7,21,0.00
2013-6-27,76.0,59.7,43.0,52.0,45.9,38.0,96,66,30,0.00,40.00,14,4,17,0.00
2013-6-28,81.0,64.8,46.0,54.0,47.1,40.0,90,58,25,0.00,40.00,9,3,14,0.00
2013-6-29,77.0,64.3,48.0,59.0,49.8,43.0,89,62,31,0.00,40.00,17,6,24,0.00
2013-6-30,81.0,65.4,50.0,55.0,50.5,46.0,92,63,29,0.00,40.00,8,3,13,0.00
2013-7-1,87.0,69.3,50.0,59.0,50.1,39.0,94,57,20,0.00,40.00,8,3,14,0.00
2013-7-2,88.0,71.6,56.0,58.0,51.6,44.0,80,53,22,0.00,40.00,7,2,11,0.00
2013-7-3,79.0,69.1,56.0,57.0,51.4,47.0,82,55,32,0.00,40.00,16,8,24,0.00
2013-7-4,76.0,64.8,50.0,52.0,45.5,38.0,80,52,28,0.00,40.00,15,5,21,0.00
2013-7-5,71.0,61.6,45.0,49.0,42.5,38.0,78,51,34,0.00,40.00,16,4,24,0.00
2013-7-6,74.0,56.6,41.0,43.0,37.5,35.0,81,54,25,0.00,40.00,8,4,14,0.00
2013-7-7,78.0,63.2,44.0,45.0,38.8,33.0,78,45,21,0.00,40.00,13,4,17,0.00
2013-7-8,72.0,59.9,47.0,50.0,42.4,-99.9,82,55,32,0.00,40.00,17,6,27,0.00
2013-7-9,73.0,53.0,42.0,40.0,36.9,31.0,84,60,23,0.00,40.00,6,4,9,0.00